createdAt,value
2018-05-14T00:00:55.862Z,996.35
2018-05-14T00:01:55.854Z,996.33
2018-05-14T00:02:55.853Z,996.38
2018-05-14T00:03:55.838Z,996.35
2018-05-14T00:04:55.828Z,996.33
2018-05-14T00:05:55.823Z,996.30
2018-05-14T00:06:55.813Z,996.30
2018-05-14T00:07:55.804Z,996.24
2018-05-14T00:08:55.795Z,996.20
2018-05-14T00:09:55.787Z,996.19
2018-05-14T00:10:55.779Z,996.19
2018-05-14T00:11:55.771Z,996.17
2018-05-14T00:12:55.765Z,996.15
2018-05-14T00:13:55.753Z,996.16
2018-05-14T00:14:55.749Z,996.17
2018-05-14T00:15:55.736Z,996.15
2018-05-14T00:16:55.727Z,996.20
2018-05-14T00:17:55.722Z,996.22
2018-05-14T00:18:55.711Z,996.22
2018-05-14T00:19:55.702Z,996.24
2018-05-14T00:20:55.696Z,996.20
2018-05-14T00:21:55.685Z,996.19
2018-05-14T00:22:55.677Z,996.20
2018-05-14T00:23:55.671Z,996.22
2018-05-14T00:24:55.659Z,996.20
2018-05-14T00:25:55.651Z,996.23
2018-05-14T00:26:55.643Z,996.22
2018-05-14T00:27:55.635Z,996.18
2018-05-14T00:28:55.626Z,996.16
2018-05-14T00:29:55.617Z,996.16
2018-05-14T00:30:55.611Z,996.18
2018-05-14T00:31:55.601Z,996.18
2018-05-14T00:32:55.591Z,996.23
2018-05-14T00:33:55.584Z,996.20
2018-05-14T00:34:55.576Z,996.21
2018-05-14T00:35:55.568Z,996.28
2018-05-14T00:36:55.558Z,996.27
2018-05-14T00:37:55.551Z,996.29
2018-05-14T00:38:55.551Z,996.27
2018-05-14T00:39:55.534Z,996.29
2018-05-14T00:40:55.525Z,996.26
2018-05-14T00:41:55.519Z,996.26
2018-05-14T00:42:55.516Z,996.27
2018-05-14T00:43:55.501Z,996.23
2018-05-14T00:44:55.493Z,996.24
2018-05-14T00:45:55.486Z,996.23
2018-05-14T00:46:55.477Z,996.20
2018-05-14T00:47:55.469Z,996.19
2018-05-14T00:48:55.459Z,996.19
2018-05-14T00:49:55.452Z,996.19
2018-05-14T00:50:55.446Z,996.19
2018-05-14T00:51:55.436Z,996.18
2018-05-14T00:52:55.427Z,996.13
2018-05-14T00:53:55.420Z,996.11
2018-05-14T00:54:55.413Z,996.06
2018-05-14T00:55:55.405Z,996.02
2018-05-14T00:56:55.394Z,995.98
2018-05-14T00:57:55.388Z,995.99
2018-05-14T00:58:55.383Z,995.96
2018-05-14T00:59:55.371Z,996.03
2018-05-14T01:00:55.362Z,996.00
2018-05-14T01:01:55.354Z,996.06
2018-05-14T01:02:55.359Z,996.08
2018-05-14T01:03:55.337Z,996.13
2018-05-14T01:04:55.329Z,996.13
2018-05-14T01:05:55.320Z,996.14
2018-05-14T01:06:55.313Z,996.15
2018-05-14T01:07:55.304Z,996.14
2018-05-14T01:08:55.295Z,996.17
2018-05-14T01:09:55.288Z,996.15
2018-05-14T01:10:55.280Z,996.20
2018-05-14T01:11:55.272Z,996.21
2018-05-14T01:12:55.265Z,996.22
2018-05-14T01:13:55.255Z,996.23
2018-05-14T01:14:55.248Z,996.21
2018-05-14T01:15:55.239Z,996.23
2018-05-14T01:16:55.230Z,996.20
2018-05-14T01:17:55.223Z,996.19
2018-05-14T01:18:55.215Z,996.16
2018-05-14T01:19:55.207Z,996.15
2018-05-14T01:20:55.198Z,996.16
2018-05-14T01:21:55.190Z,996.15
2018-05-14T01:22:55.181Z,996.12
2018-05-14T01:23:55.177Z,996.15
2018-05-14T01:24:55.165Z,996.13
2018-05-14T01:25:55.157Z,996.15
2018-05-14T01:26:55.149Z,996.12
2018-05-14T01:27:55.141Z,996.09
2018-05-14T01:28:55.132Z,996.14
2018-05-14T01:29:55.125Z,996.12
2018-05-14T01:30:55.116Z,996.10
2018-05-14T01:31:55.109Z,996.09
2018-05-14T01:32:55.100Z,996.09
2018-05-14T01:33:55.092Z,996.08
2018-05-14T01:34:55.084Z,996.09
2018-05-14T01:35:55.077Z,996.14
2018-05-14T01:36:55.068Z,996.13
2018-05-14T01:37:55.060Z,996.11
2018-05-14T01:38:55.052Z,996.14
2018-05-14T01:39:55.044Z,996.12
2018-05-14T01:40:55.036Z,996.13
2018-05-14T01:41:55.028Z,996.11
2018-05-14T01:42:55.023Z,996.11
2018-05-14T01:43:55.013Z,996.14
2018-05-14T01:44:55.003Z,996.09
2018-05-14T01:45:54.996Z,996.13
2018-05-14T01:46:54.988Z,996.09
2018-05-14T01:47:54.981Z,996.11
2018-05-14T01:48:54.971Z,996.08
2018-05-14T01:49:54.964Z,996.06
2018-05-14T01:50:54.955Z,996.03
2018-05-14T01:51:54.947Z,996.01
2018-05-14T01:52:54.942Z,996.02
2018-05-14T01:53:54.930Z,996.05
2018-05-14T01:54:54.922Z,996.05
2018-05-14T01:55:54.915Z,996.03
2018-05-14T01:56:54.905Z,996.06
2018-05-14T01:57:54.897Z,996.07
2018-05-14T01:58:54.889Z,996.06
2018-05-14T01:59:54.881Z,996.08
2018-05-14T02:00:54.872Z,996.11
2018-05-14T02:01:54.863Z,996.03
2018-05-14T02:02:54.856Z,996.07
2018-05-14T02:03:54.847Z,996.04
2018-05-14T02:04:54.838Z,996.01
2018-05-14T02:05:54.831Z,996.02
2018-05-14T02:06:54.928Z,996.04
2018-05-14T02:07:54.815Z,996.01
2018-05-14T02:08:54.807Z,995.97
2018-05-14T02:09:54.797Z,995.98
2018-05-14T02:10:54.791Z,995.99
2018-05-14T02:11:54.780Z,995.98
2018-05-14T02:12:54.771Z,995.94
2018-05-14T02:13:54.763Z,995.92
2018-05-14T02:14:54.754Z,995.92
2018-05-14T02:15:54.746Z,995.92
2018-05-14T02:16:54.740Z,995.92
2018-05-14T02:17:54.728Z,995.88
2018-05-14T02:18:54.720Z,995.88
2018-05-14T02:19:54.712Z,995.84
2018-05-14T02:20:54.703Z,995.82
2018-05-14T02:21:54.698Z,995.84
2018-05-14T02:22:54.686Z,995.81
2018-05-14T02:23:54.679Z,995.82
2018-05-14T02:24:54.669Z,995.76
2018-05-14T02:25:54.661Z,995.79
2018-05-14T02:26:54.652Z,995.78
2018-05-14T02:27:54.643Z,995.75
2018-05-14T02:28:54.634Z,995.74
2018-05-14T02:29:54.626Z,995.74
2018-05-14T02:30:54.617Z,995.77
2018-05-14T02:31:54.610Z,995.73
2018-05-14T02:32:54.603Z,995.69
2018-05-14T02:33:54.591Z,995.72
2018-05-14T02:34:54.587Z,995.74
2018-05-14T02:35:54.578Z,995.71
2018-05-14T02:36:54.565Z,995.72
2018-05-14T02:37:54.559Z,995.68
2018-05-14T02:38:54.548Z,995.72
2018-05-14T02:39:54.540Z,995.73
2018-05-14T02:40:54.534Z,995.74
2018-05-14T02:41:54.522Z,995.76
2018-05-14T02:42:54.514Z,995.76
2018-05-14T02:43:54.506Z,995.77
2018-05-14T02:44:54.497Z,995.80
2018-05-14T02:45:54.488Z,995.74
2018-05-14T02:46:54.483Z,995.76
2018-05-14T02:47:54.471Z,995.74
2018-05-14T02:48:54.465Z,995.76
2018-05-14T02:49:54.454Z,995.77
2018-05-14T02:50:54.448Z,995.82
2018-05-14T02:51:54.437Z,995.83
2018-05-14T02:52:54.428Z,995.86
2018-05-14T02:53:54.427Z,995.91
2018-05-14T02:54:54.411Z,995.87
2018-05-14T02:55:54.403Z,995.92
2018-05-14T02:56:54.394Z,995.91
2018-05-14T02:57:54.386Z,995.95
2018-05-14T02:58:54.378Z,995.86
2018-05-14T02:59:54.370Z,995.87
2018-05-14T03:00:54.359Z,995.82
2018-05-14T03:01:54.353Z,995.84
2018-05-14T03:02:54.346Z,995.78
2018-05-14T03:03:54.335Z,995.79
2018-05-14T03:04:54.401Z,995.77
2018-05-14T03:05:54.317Z,995.75
2018-05-14T03:06:54.309Z,995.80
2018-05-14T03:07:54.307Z,995.73
2018-05-14T03:08:54.294Z,995.78
2018-05-14T03:09:54.283Z,995.75
2018-05-14T03:10:54.274Z,995.74
2018-05-14T03:11:54.266Z,995.75
2018-05-14T03:12:54.261Z,995.73
2018-05-14T03:13:54.248Z,995.73
2018-05-14T03:14:54.241Z,995.70
2018-05-14T03:15:54.232Z,995.71
2018-05-14T03:16:54.223Z,995.70
2018-05-14T03:17:54.215Z,995.71
2018-05-14T03:18:54.206Z,995.70
2018-05-14T03:19:54.198Z,995.68
2018-05-14T03:20:54.188Z,995.73
2018-05-14T03:21:54.181Z,995.74
2018-05-14T03:22:54.172Z,995.73
2018-05-14T03:23:54.164Z,995.72
2018-05-14T03:24:54.155Z,995.68
2018-05-14T03:25:54.146Z,995.67
2018-05-14T03:26:54.142Z,995.69
2018-05-14T03:27:54.130Z,995.70
2018-05-14T03:28:54.121Z,995.71
2018-05-14T03:29:54.113Z,995.70
2018-05-14T03:30:54.105Z,995.69
2018-05-14T03:31:54.101Z,995.71
2018-05-14T03:32:54.087Z,995.72
2018-05-14T03:33:54.078Z,995.69
2018-05-14T03:34:54.070Z,995.68
2018-05-14T03:35:54.062Z,995.74
2018-05-14T03:36:54.053Z,995.75
2018-05-14T03:37:54.045Z,995.76
2018-05-14T03:38:54.035Z,995.80
2018-05-14T03:39:54.027Z,995.81
2018-05-14T03:40:54.018Z,995.79
2018-05-14T03:41:54.011Z,995.76
2018-05-14T03:42:54.002Z,995.75
2018-05-14T03:43:53.993Z,995.75
2018-05-14T03:44:53.984Z,995.80
2018-05-14T03:45:53.975Z,995.74
2018-05-14T03:46:53.968Z,995.76
2018-05-14T03:47:53.959Z,995.73
2018-05-14T03:48:53.950Z,995.75
2018-05-14T03:49:53.941Z,995.77
2018-05-14T03:50:53.933Z,995.77
2018-05-14T03:51:53.924Z,995.77
2018-05-14T03:52:53.915Z,995.76
2018-05-14T03:53:53.906Z,995.78
2018-05-14T03:54:53.898Z,995.75
2018-05-14T03:55:53.891Z,995.76
2018-05-14T03:56:53.881Z,995.74
2018-05-14T03:57:53.872Z,995.67
2018-05-14T03:58:53.865Z,995.67
2018-05-14T03:59:53.856Z,995.66
2018-05-14T04:00:53.847Z,995.63
2018-05-14T04:01:53.839Z,995.63
2018-05-14T04:02:53.831Z,995.62
2018-05-14T04:03:53.825Z,995.61
2018-05-14T04:04:53.812Z,995.59
2018-05-14T04:05:53.804Z,995.60
2018-05-14T04:06:53.795Z,995.60
2018-05-14T04:07:53.788Z,995.62
2018-05-14T04:08:53.778Z,995.68
2018-05-14T04:09:53.768Z,995.72
2018-05-14T04:10:53.761Z,995.71
2018-05-14T04:11:53.757Z,995.73
2018-05-14T04:12:53.743Z,995.76
2018-05-14T04:13:53.734Z,995.76
2018-05-14T04:14:53.726Z,995.72
2018-05-14T04:15:53.717Z,995.76
2018-05-14T04:16:53.708Z,995.78
2018-05-14T04:17:53.700Z,995.80
2018-05-14T04:18:53.696Z,995.78
2018-05-14T04:19:53.682Z,995.76
2018-05-14T04:20:53.673Z,995.74
2018-05-14T04:21:53.668Z,995.73
2018-05-14T04:22:53.656Z,995.72
2018-05-14T04:23:53.648Z,995.74
2018-05-14T04:24:53.639Z,995.76
2018-05-14T04:25:53.630Z,995.79
2018-05-14T04:26:53.622Z,995.76
2018-05-14T04:27:53.613Z,995.77
2018-05-14T04:28:53.605Z,995.84
2018-05-14T04:29:53.595Z,995.83
2018-05-14T04:30:53.588Z,995.84
2018-05-14T04:31:53.579Z,995.85
2018-05-14T04:32:53.569Z,995.85
2018-05-14T04:33:53.561Z,995.84
2018-05-14T04:34:53.565Z,995.80
2018-05-14T04:35:53.545Z,995.81
2018-05-14T04:36:53.535Z,995.81
2018-05-14T04:37:53.527Z,995.79
2018-05-14T04:38:53.519Z,995.78
2018-05-14T04:39:53.511Z,995.76
2018-05-14T04:40:53.501Z,995.76
2018-05-14T04:41:53.500Z,995.75
2018-05-14T04:42:53.484Z,995.75
2018-05-14T04:43:53.475Z,995.74
2018-05-14T04:44:53.466Z,995.75
2018-05-14T04:45:53.457Z,995.73
2018-05-14T04:46:53.449Z,995.73
2018-05-14T04:47:53.441Z,995.75
2018-05-14T04:48:53.431Z,995.73
2018-05-14T04:49:53.423Z,995.69
2018-05-14T04:50:53.414Z,995.66
2018-05-14T04:51:53.406Z,995.64
2018-05-14T04:52:53.401Z,995.62
2018-05-14T04:53:53.388Z,995.64
2018-05-14T04:54:53.379Z,995.59
2018-05-14T04:55:53.370Z,995.59
2018-05-14T04:56:53.361Z,995.60
2018-05-14T04:57:53.352Z,995.59
2018-05-14T04:58:53.346Z,995.63
2018-05-14T04:59:53.335Z,995.64
2018-05-14T05:00:53.330Z,995.67
2018-05-14T05:01:53.317Z,995.67
2018-05-14T05:02:53.309Z,995.68
2018-05-14T05:03:53.300Z,995.68
2018-05-14T05:04:53.293Z,995.71
2018-05-14T05:05:53.282Z,995.73
2018-05-14T05:06:53.273Z,995.75
2018-05-14T05:07:53.265Z,995.72
2018-05-14T05:08:53.255Z,995.70
2018-05-14T05:09:53.247Z,995.76
2018-05-14T05:10:53.239Z,995.73
2018-05-14T05:11:53.230Z,995.75
2018-05-14T05:12:53.221Z,995.75
2018-05-14T05:13:53.212Z,995.74
2018-05-14T05:14:53.203Z,995.76
2018-05-14T05:15:53.195Z,995.76
2018-05-14T05:16:53.185Z,995.80
2018-05-14T05:17:53.181Z,995.80
2018-05-14T05:18:53.169Z,995.79
2018-05-14T05:19:53.160Z,995.78
2018-05-14T05:20:53.151Z,995.80
2018-05-14T05:21:53.144Z,995.84
2018-05-14T05:22:53.138Z,995.87
2018-05-14T05:23:53.126Z,995.84
2018-05-14T05:24:53.117Z,995.92
2018-05-14T05:25:53.109Z,995.89
2018-05-14T05:26:53.102Z,995.87
2018-05-14T05:27:53.092Z,995.87
2018-05-14T05:28:53.086Z,995.84
2018-05-14T05:29:53.079Z,995.85
2018-05-14T05:30:53.067Z,995.83
2018-05-14T05:31:53.058Z,995.86
2018-05-14T05:32:53.049Z,995.82
2018-05-14T05:33:53.041Z,995.79
2018-05-14T05:34:53.033Z,995.81
2018-05-14T05:35:53.026Z,995.87
2018-05-14T05:36:53.020Z,995.84
2018-05-14T05:37:53.064Z,995.87
2018-05-14T05:38:52.999Z,995.88
2018-05-14T05:39:52.990Z,995.86
2018-05-14T05:40:52.981Z,995.86
2018-05-14T05:41:52.973Z,995.86
2018-05-14T05:42:52.969Z,995.87
2018-05-14T05:43:52.956Z,995.84
2018-05-14T05:44:52.947Z,995.84
2018-05-14T05:45:52.939Z,995.86
2018-05-14T05:46:52.931Z,995.89
2018-05-14T05:47:52.923Z,995.88
2018-05-14T05:48:52.914Z,995.90
2018-05-14T05:49:52.906Z,995.87
2018-05-14T05:50:52.898Z,995.86
2018-05-14T05:51:52.890Z,995.84
2018-05-14T05:52:52.884Z,995.91
2018-05-14T05:53:52.874Z,995.91
2018-05-14T05:54:52.865Z,995.92
2018-05-14T05:55:52.857Z,995.93
2018-05-14T05:56:52.848Z,995.93
2018-05-14T05:57:52.839Z,995.94
2018-05-14T05:58:52.832Z,995.95
2018-05-14T05:59:52.824Z,995.96
2018-05-14T06:00:52.815Z,995.93
2018-05-14T06:01:52.810Z,995.89
2018-05-14T06:02:52.799Z,995.92
2018-05-14T06:03:52.791Z,995.90
2018-05-14T06:04:52.782Z,995.88
2018-05-14T06:05:52.774Z,995.86
2018-05-14T06:06:52.767Z,995.87
2018-05-14T06:07:52.759Z,995.86
2018-05-14T06:08:52.750Z,995.88
2018-05-14T06:09:52.742Z,995.85
2018-05-14T06:10:52.736Z,995.89
2018-05-14T06:11:52.727Z,995.83
2018-05-14T06:12:52.717Z,995.87
2018-05-14T06:13:52.710Z,995.84
2018-05-14T06:14:52.703Z,995.86
2018-05-14T06:15:52.694Z,995.86
2018-05-14T06:16:52.686Z,995.86
2018-05-14T06:17:52.678Z,995.88
2018-05-14T06:18:52.670Z,995.83
2018-05-14T06:19:52.663Z,995.84
2018-05-14T06:20:52.654Z,995.83
2018-05-14T06:21:52.646Z,995.83
2018-05-14T06:22:52.638Z,995.82
2018-05-14T06:23:52.630Z,995.87
2018-05-14T06:24:52.622Z,995.85
2018-05-14T06:25:52.615Z,995.90
2018-05-14T06:26:52.607Z,995.88
2018-05-14T06:27:52.682Z,995.86
2018-05-14T06:28:52.590Z,995.93
2018-05-14T06:29:52.582Z,995.91
2018-05-14T06:30:52.575Z,995.95
2018-05-14T06:31:52.566Z,995.98
2018-05-14T06:32:52.558Z,995.97
2018-05-14T06:33:52.550Z,996.01
2018-05-14T06:34:52.542Z,996.00
2018-05-14T06:35:52.535Z,996.01
2018-05-14T06:36:52.526Z,996.06
2018-05-14T06:37:52.518Z,996.03
2018-05-14T06:38:52.511Z,995.98
2018-05-14T06:39:52.503Z,995.97
2018-05-14T06:40:52.495Z,996.02
2018-05-14T06:41:52.487Z,996.00
2018-05-14T06:42:52.483Z,996.04
2018-05-14T06:43:52.472Z,995.99
2018-05-14T06:44:52.463Z,995.99
2018-05-14T06:45:52.456Z,995.98
2018-05-14T06:46:52.448Z,995.97
2018-05-14T06:47:52.440Z,995.93
2018-05-14T06:48:52.432Z,995.95
2018-05-14T06:49:52.460Z,995.94
2018-05-14T06:50:52.417Z,995.97
2018-05-14T06:51:52.410Z,995.97
2018-05-14T06:52:52.401Z,995.94
2018-05-14T06:53:52.393Z,995.96
2018-05-14T06:54:52.391Z,995.98
2018-05-14T06:55:52.378Z,995.93
2018-05-14T06:56:52.385Z,995.94
2018-05-14T06:57:52.363Z,995.92
2018-05-14T06:58:52.355Z,995.92
2018-05-14T06:59:52.349Z,995.92
2018-05-14T07:00:52.340Z,995.91
2018-05-14T07:01:52.335Z,995.93
2018-05-14T07:02:52.326Z,995.96
2018-05-14T07:03:52.319Z,996.01
2018-05-14T07:04:52.311Z,996.02
2018-05-14T07:05:52.303Z,996.06
2018-05-14T07:06:52.296Z,996.03
2018-05-14T07:07:52.290Z,996.02
2018-05-14T07:08:52.281Z,996.00
2018-05-14T07:09:52.279Z,996.07
2018-05-14T07:10:52.270Z,996.06
2018-05-14T07:11:52.261Z,996.04
2018-05-14T07:12:52.253Z,996.05
2018-05-14T07:13:52.245Z,996.08
2018-05-14T07:14:52.238Z,996.05
2018-05-14T07:15:52.231Z,996.01
2018-05-14T07:16:52.222Z,996.02
2018-05-14T07:17:52.215Z,995.93
2018-05-14T07:18:52.212Z,995.93
2018-05-14T07:19:52.201Z,995.92
2018-05-14T07:20:52.193Z,995.92
2018-05-14T07:21:52.190Z,995.92
2018-05-14T07:22:52.179Z,995.94
2018-05-14T07:23:52.171Z,995.99
2018-05-14T07:24:52.205Z,995.97
2018-05-14T07:25:52.156Z,996.03
2018-05-14T07:26:52.152Z,996.07
2018-05-14T07:27:52.146Z,996.08
2018-05-14T07:28:52.134Z,996.11
2018-05-14T07:29:52.128Z,996.13
2018-05-14T07:30:52.121Z,996.14
2018-05-14T07:31:52.113Z,996.16
2018-05-14T07:32:52.110Z,996.20
2018-05-14T07:33:52.099Z,996.23
2018-05-14T07:34:52.093Z,996.19
2018-05-14T07:35:52.086Z,996.26
2018-05-14T07:36:52.078Z,996.32
2018-05-14T07:37:52.075Z,996.32
2018-05-14T07:38:52.064Z,996.36
2018-05-14T07:39:52.057Z,996.35
2018-05-14T07:40:52.049Z,996.38
2018-05-14T07:41:52.042Z,996.38
2018-05-14T07:42:52.036Z,996.40
2018-05-14T07:43:52.031Z,996.43
2018-05-14T07:44:52.025Z,996.43
2018-05-14T07:45:52.042Z,996.46
2018-05-14T07:46:52.009Z,996.46
2018-05-14T07:47:52.002Z,996.46
2018-05-14T07:48:51.997Z,996.51
2018-05-14T07:49:51.987Z,996.50
2018-05-14T07:50:51.986Z,996.51
2018-05-14T07:51:51.974Z,996.52
2018-05-14T07:52:51.967Z,996.54
2018-05-14T07:53:51.960Z,996.49
2018-05-14T07:54:51.953Z,996.51
2018-05-14T07:55:51.946Z,996.51
2018-05-14T07:56:51.940Z,996.49
2018-05-14T07:57:51.937Z,996.51
2018-05-14T07:58:51.926Z,996.49
2018-05-14T07:59:51.920Z,996.52
2018-05-14T08:00:51.912Z,996.50
2018-05-14T08:01:51.905Z,996.51
2018-05-14T08:02:51.899Z,996.53
2018-05-14T08:03:51.894Z,996.54
2018-05-14T08:04:51.885Z,996.50
2018-05-14T08:05:51.939Z,996.47
2018-05-14T08:06:51.876Z,996.47
2018-05-14T08:07:51.866Z,996.48
2018-05-14T08:08:51.858Z,996.45
2018-05-14T08:09:51.853Z,996.41
2018-05-14T08:10:51.847Z,996.46
2018-05-14T08:11:51.841Z,996.45
2018-05-14T08:12:51.833Z,996.43
2018-05-14T08:13:51.827Z,996.45
2018-05-14T08:14:51.820Z,996.42
2018-05-14T08:15:51.814Z,996.42
2018-05-14T08:16:51.807Z,996.45
2018-05-14T08:17:51.800Z,996.42
2018-05-14T08:18:51.794Z,996.40
2018-05-14T08:19:51.788Z,996.37
2018-05-14T08:20:51.783Z,996.37
2018-05-14T08:21:51.775Z,996.37
2018-05-14T08:22:51.768Z,996.34
2018-05-14T08:23:51.763Z,996.37
2018-05-14T08:24:51.756Z,996.38
2018-05-14T08:25:51.749Z,996.41
2018-05-14T08:26:51.743Z,996.46
2018-05-14T08:27:51.739Z,996.46
2018-05-14T08:28:51.729Z,996.46
2018-05-14T08:29:51.724Z,996.49
2018-05-14T08:30:51.718Z,996.47
2018-05-14T08:31:51.710Z,996.47
2018-05-14T08:32:51.703Z,996.44
2018-05-14T08:33:51.698Z,996.45
2018-05-14T08:34:51.692Z,996.45
2018-05-14T08:35:51.686Z,996.48
2018-05-14T08:36:51.681Z,996.46
2018-05-14T08:37:51.672Z,996.41
2018-05-14T08:38:51.666Z,996.44
2018-05-14T08:39:51.661Z,996.41
2018-05-14T08:40:51.653Z,996.43
2018-05-14T08:41:51.647Z,996.44
2018-05-14T08:42:51.641Z,996.44
2018-05-14T08:43:51.635Z,996.42
2018-05-14T08:44:51.632Z,996.41
2018-05-14T08:45:51.623Z,996.40
2018-05-14T08:46:51.616Z,996.42
2018-05-14T08:47:51.666Z,996.43
2018-05-14T08:48:51.604Z,996.41
2018-05-14T08:49:51.598Z,996.42
2018-05-14T08:50:51.593Z,996.40
2018-05-14T08:51:51.587Z,996.44
2018-05-14T08:52:51.580Z,996.38
2018-05-14T08:53:51.575Z,996.38
2018-05-14T08:54:51.568Z,996.40
2018-05-14T08:55:51.648Z,996.38
2018-05-14T08:56:51.558Z,996.38
2018-05-14T08:57:51.551Z,996.38
2018-05-14T08:58:51.546Z,996.39
2018-05-14T08:59:51.541Z,996.37
2018-05-14T09:00:51.552Z,996.40
2018-05-14T09:01:51.529Z,996.37
2018-05-14T09:02:51.524Z,996.32
2018-05-14T09:03:51.519Z,996.36
2018-05-14T09:04:51.513Z,996.37
2018-05-14T09:05:51.508Z,996.36
2018-05-14T09:06:51.502Z,996.39
2018-05-14T09:07:51.499Z,996.37
2018-05-14T09:08:51.492Z,996.33
2018-05-14T09:09:51.487Z,996.34
2018-05-14T09:10:51.482Z,996.32
2018-05-14T09:11:51.477Z,996.32
2018-05-14T09:12:51.471Z,996.34
2018-05-14T09:13:51.467Z,996.27
2018-05-14T09:14:51.462Z,996.26
2018-05-14T09:15:51.457Z,996.25
2018-05-14T09:16:51.456Z,996.23
2018-05-14T09:17:51.447Z,996.21
2018-05-14T09:18:51.443Z,996.21
2018-05-14T09:19:51.439Z,996.19
2018-05-14T09:20:51.435Z,996.22
2018-05-14T09:21:51.430Z,996.21
2018-05-14T09:22:51.428Z,996.23
2018-05-14T09:23:51.424Z,996.21
2018-05-14T09:24:51.417Z,996.25
2018-05-14T09:25:51.413Z,996.24
2018-05-14T09:26:51.413Z,996.28
2018-05-14T09:27:51.405Z,996.29
2018-05-14T09:28:51.401Z,996.28
2018-05-14T09:29:51.397Z,996.35
2018-05-14T09:30:51.394Z,996.38
2018-05-14T09:31:51.392Z,996.36
2018-05-14T09:32:51.386Z,996.40
2018-05-14T09:33:51.382Z,996.40
2018-05-14T09:34:51.378Z,996.42
2018-05-14T09:35:51.379Z,996.40
2018-05-14T09:36:51.370Z,996.40
2018-05-14T09:37:51.366Z,996.40
2018-05-14T09:38:51.362Z,996.43
2018-05-14T09:39:51.360Z,996.41
2018-05-14T09:40:51.354Z,996.40
2018-05-14T09:41:51.351Z,996.40
2018-05-14T09:42:51.347Z,996.44
2018-05-14T09:43:51.343Z,996.48
2018-05-14T09:44:51.339Z,996.52
2018-05-14T09:45:51.336Z,996.48
2018-05-14T09:46:51.332Z,996.50
2018-05-14T09:47:51.329Z,996.53
2018-05-14T09:48:51.324Z,996.54
2018-05-14T09:49:51.321Z,996.48
2018-05-14T09:50:51.318Z,996.51
2018-05-14T09:51:51.315Z,996.55
2018-05-14T09:52:51.309Z,996.53
2018-05-14T09:53:51.308Z,996.51
2018-05-14T09:54:51.303Z,996.58
2018-05-14T09:55:51.300Z,996.50
2018-05-14T09:56:51.295Z,996.51
2018-05-14T09:57:51.293Z,996.52
2018-05-14T09:58:51.289Z,996.51
2018-05-14T09:59:51.286Z,996.53
2018-05-14T10:00:51.281Z,996.49
2018-05-14T10:01:51.278Z,996.50
2018-05-14T10:02:51.275Z,996.50
2018-05-14T10:03:51.271Z,996.51
2018-05-14T10:04:51.266Z,996.53
2018-05-14T10:05:51.263Z,996.50
2018-05-14T10:06:51.259Z,996.55
2018-05-14T10:07:51.255Z,996.55
2018-05-14T10:08:51.251Z,996.53
2018-05-14T10:09:51.248Z,996.50
2018-05-14T10:10:51.244Z,996.54
2018-05-14T10:11:51.241Z,996.52
2018-05-14T10:12:51.237Z,996.56
2018-05-14T10:13:51.233Z,996.58
2018-05-14T10:14:51.230Z,996.59
2018-05-14T10:15:51.227Z,996.59
2018-05-14T10:16:51.226Z,996.59
2018-05-14T10:17:51.219Z,996.63
2018-05-14T10:18:51.220Z,996.56
2018-05-14T10:19:51.213Z,996.60
2018-05-14T10:20:51.209Z,996.59
2018-05-14T10:21:51.207Z,996.57
2018-05-14T10:22:51.205Z,996.60
2018-05-14T10:23:51.203Z,996.60
2018-05-14T10:24:51.198Z,996.63
2018-05-14T10:25:51.197Z,996.65
2018-05-14T10:26:51.193Z,996.67
2018-05-14T10:27:51.191Z,996.64
2018-05-14T10:28:51.188Z,996.67
2018-05-14T10:29:51.185Z,996.63
2018-05-14T10:30:51.184Z,996.66
2018-05-14T10:31:51.181Z,996.64
2018-05-14T10:32:51.179Z,996.64
2018-05-14T10:33:51.176Z,996.66
2018-05-14T10:34:51.177Z,996.63
2018-05-14T10:35:51.173Z,996.65
2018-05-14T10:36:51.174Z,996.63
2018-05-14T10:37:51.168Z,996.63
2018-05-14T10:38:51.166Z,996.63
2018-05-14T10:39:51.164Z,996.65
2018-05-14T10:40:51.161Z,996.66
2018-05-14T10:41:51.159Z,996.65
2018-05-14T10:42:51.156Z,996.67
2018-05-14T10:43:51.154Z,996.66
2018-05-14T10:44:51.153Z,996.69
2018-05-14T10:45:51.152Z,996.69
2018-05-14T10:46:51.208Z,996.69
2018-05-14T10:47:51.148Z,996.70
2018-05-14T10:48:51.142Z,996.70
2018-05-14T10:49:51.144Z,996.73
2018-05-14T10:50:51.139Z,996.69
2018-05-14T10:51:51.138Z,996.68
2018-05-14T10:52:51.212Z,996.65
2018-05-14T10:53:51.135Z,996.68
2018-05-14T10:54:51.134Z,996.69
2018-05-14T10:55:51.133Z,996.71
2018-05-14T10:56:51.132Z,996.72
2018-05-14T10:57:51.131Z,996.68
2018-05-14T10:58:51.131Z,996.69
2018-05-14T10:59:51.130Z,996.71
2018-05-14T11:00:51.129Z,996.69
2018-05-14T11:01:51.128Z,996.70
2018-05-14T11:02:51.128Z,996.73
2018-05-14T11:03:51.166Z,996.74
2018-05-14T11:04:51.129Z,996.76
2018-05-14T11:05:51.126Z,996.75
2018-05-14T11:06:51.125Z,996.73
2018-05-14T11:07:51.128Z,996.72
2018-05-14T11:08:51.122Z,996.71
2018-05-14T11:09:51.122Z,996.73
2018-05-14T11:10:51.122Z,996.73
2018-05-14T11:11:51.121Z,996.75
2018-05-14T11:12:51.120Z,996.73
2018-05-14T11:13:51.119Z,996.71
2018-05-14T11:14:51.119Z,996.80
2018-05-14T11:15:51.121Z,996.74
2018-05-14T11:16:51.120Z,996.75
2018-05-14T11:17:51.121Z,996.81
2018-05-14T11:18:51.169Z,996.78
2018-05-14T11:19:51.122Z,996.77
2018-05-14T11:20:51.121Z,996.76
2018-05-14T11:21:51.122Z,996.78
2018-05-14T11:22:51.123Z,996.82
2018-05-14T11:23:51.123Z,996.83
2018-05-14T11:24:51.122Z,996.85
2018-05-14T11:25:51.122Z,996.87
2018-05-14T11:26:51.123Z,996.90
2018-05-14T11:27:51.226Z,996.89
2018-05-14T11:28:51.123Z,996.88
2018-05-14T11:29:51.123Z,996.89
2018-05-14T11:30:51.123Z,996.94
2018-05-14T11:31:51.124Z,996.91
2018-05-14T11:32:51.205Z,996.92
2018-05-14T11:33:51.124Z,996.92
2018-05-14T11:34:51.125Z,996.95
2018-05-14T11:35:51.128Z,996.97
2018-05-14T11:36:51.125Z,997.01
2018-05-14T11:37:51.126Z,997.00
2018-05-14T11:38:51.126Z,997.02
2018-05-14T11:39:51.126Z,997.01
2018-05-14T11:40:51.126Z,997.02
2018-05-14T11:41:51.127Z,997.05
2018-05-14T11:42:51.128Z,997.01
2018-05-14T11:43:51.132Z,997.00
2018-05-14T11:44:51.131Z,996.98
2018-05-14T11:45:51.134Z,997.03
2018-05-14T11:46:51.134Z,996.99
2018-05-14T11:47:51.136Z,997.01
2018-05-14T11:48:51.137Z,997.01
2018-05-14T11:49:51.138Z,996.99
2018-05-14T11:50:51.166Z,996.98
2018-05-14T11:51:51.142Z,996.99
2018-05-14T11:52:51.143Z,997.05
2018-05-14T11:53:51.144Z,997.03
2018-05-14T11:54:51.145Z,997.01
2018-05-14T11:55:51.148Z,997.06
2018-05-14T11:56:51.148Z,997.00
2018-05-14T11:57:51.149Z,997.00
2018-05-14T11:58:51.151Z,997.01
2018-05-14T11:59:51.153Z,997.05
2018-05-14T12:00:51.154Z,996.99
2018-05-14T12:01:51.155Z,997.01
2018-05-14T12:02:51.172Z,996.99
2018-05-14T12:03:51.158Z,996.91
2018-05-14T12:04:51.158Z,996.96
2018-05-14T12:05:51.160Z,996.97
2018-05-14T12:06:51.161Z,996.98
2018-05-14T12:07:51.164Z,997.02
2018-05-14T12:08:51.164Z,996.99
2018-05-14T12:09:51.166Z,996.98
2018-05-14T12:10:51.170Z,996.96
2018-05-14T12:11:51.172Z,996.93
2018-05-14T12:12:51.173Z,996.96
2018-05-14T12:13:51.176Z,996.94
2018-05-14T12:14:51.179Z,996.91
2018-05-14T12:15:51.183Z,996.88
2018-05-14T12:16:51.188Z,996.89
2018-05-14T12:17:51.189Z,996.87
2018-05-14T12:18:51.191Z,996.87
2018-05-14T12:19:51.196Z,996.88
2018-05-14T12:20:51.198Z,996.88
2018-05-14T12:21:51.202Z,996.86
2018-05-14T12:22:51.206Z,996.84
2018-05-14T12:23:51.209Z,996.85
2018-05-14T12:24:51.212Z,996.86
2018-05-14T12:25:51.215Z,996.88
2018-05-14T12:26:51.217Z,996.85
2018-05-14T12:27:51.220Z,996.88
2018-05-14T12:28:51.221Z,996.89